Branson Airport

Airport
ICAO code: 
KBBG
Summary
ICAO Region: 
NAM
Territory: 
Location: 
Branson, Missouri,
Coordinates: 
Aerial View: 
36° 32' 19.001" N, 93° 11' 56.494" W
Metar
Observation
KBBG 040735Z AUTO 34003KT 10SM OVC041 13/13 A3006 RMK AO2
Station
BRANSON
Date/Time
2021-12-04 07:35:00
Wind direction
340°
Wind speed
03 kts
Lowest cloud amount
overcast
Temperature
13°C
Dew point
13°C
Humidity
100%
Weather condition
n/a

Description

Branson Airport is a public use airport located 15 km south-southeast of the central business district of Branson, a city in Taney County, Missouri.

Climatology

Humid continental climate (Köppen climate classification Dfa) - characterized by four seasons: cold, windy, snowy winters, mild springs, hot, humid summers, and crisp and relatively short autumns. Precipitation reaches its lowest in January and February and peaks in summer and latter half of spring.

Airport map: 
Aerial View: 

Accidents and Serious Incidents at or in the vicinity of KBBG

SKYbrary Partners:

Safety knowledge contributed by: